createdAt,value
2023-05-22T00:00:12.586Z,0.00
2023-05-22T00:01:12.580Z,0.00
2023-05-22T00:02:12.600Z,0.00
2023-05-22T00:03:12.672Z,0.00
2023-05-22T00:04:12.595Z,0.00
2023-05-22T00:05:12.609Z,0.00
2023-05-22T00:06:12.567Z,0.00
2023-05-22T00:07:12.539Z,0.00
2023-05-22T00:08:12.552Z,0.00
2023-05-22T00:09:12.510Z,0.00
2023-05-22T00:10:12.525Z,0.00
2023-05-22T00:11:12.505Z,0.00
2023-05-22T00:12:12.493Z,0.00
2023-05-22T00:13:12.514Z,0.00
2023-05-22T00:14:12.504Z,0.00
2023-05-22T00:15:12.460Z,0.00
2023-05-22T00:16:12.464Z,0.00
2023-05-22T00:17:13.535Z,0.00
2023-05-22T00:18:12.533Z,0.00
2023-05-22T00:19:12.476Z,0.00
2023-05-22T00:20:12.435Z,0.00
2023-05-22T00:21:12.438Z,0.00
2023-05-22T00:22:12.437Z,0.00
2023-05-22T00:23:15.218Z,0.00
2023-05-22T00:24:12.399Z,0.00
2023-05-22T00:25:12.391Z,0.00
2023-05-22T00:26:12.381Z,0.00
2023-05-22T00:27:12.416Z,0.00
2023-05-22T00:28:12.378Z,0.00
2023-05-22T00:29:12.359Z,0.00
2023-05-22T00:30:12.357Z,0.00
2023-05-22T00:31:12.346Z,0.00
2023-05-22T00:32:12.368Z,0.00
2023-05-22T00:33:12.333Z,0.00
2023-05-22T00:34:12.391Z,0.00
2023-05-22T00:35:12.318Z,0.00
2023-05-22T00:36:12.333Z,0.00
2023-05-22T00:37:12.328Z,0.00
2023-05-22T00:38:12.289Z,0.00
2023-05-22T00:39:12.282Z,0.00
2023-05-22T00:40:12.282Z,0.00
2023-05-22T00:41:12.285Z,0.00
2023-05-22T00:42:12.259Z,0.00
2023-05-22T00:43:12.246Z,0.00
2023-05-22T00:44:12.249Z,0.00
2023-05-22T00:45:12.231Z,0.00
2023-05-22T00:46:12.281Z,0.00
2023-05-22T00:47:12.211Z,0.00
2023-05-22T00:48:12.222Z,0.00
2023-05-22T00:49:12.201Z,0.00
2023-05-22T00:50:12.197Z,0.00
2023-05-22T00:51:12.219Z,0.00
2023-05-22T00:52:12.172Z,0.00
2023-05-22T00:53:12.172Z,0.00
2023-05-22T00:54:12.169Z,0.00
2023-05-22T00:55:12.150Z,0.00
2023-05-22T00:56:12.171Z,0.00
2023-05-22T00:57:12.143Z,0.00
2023-05-22T00:58:12.137Z,0.00
2023-05-22T00:59:12.123Z,0.00
2023-05-22T01:00:12.149Z,0.00
2023-05-22T01:01:12.145Z,0.00
2023-05-22T01:02:12.175Z,0.00
2023-05-22T01:03:12.302Z,0.00
2023-05-22T01:04:12.214Z,0.00
2023-05-22T01:05:12.102Z,0.00
2023-05-22T01:06:12.062Z,0.00
2023-05-22T01:07:12.061Z,0.00
2023-05-22T01:09:12.078Z,0.00
2023-05-22T01:10:12.065Z,0.00
2023-05-22T01:11:12.022Z,0.00
2023-05-22T01:12:12.025Z,0.00
2023-05-22T01:13:12.016Z,0.00
2023-05-22T01:14:12.036Z,0.00
2023-05-22T01:15:12.023Z,0.00
2023-05-22T01:16:12.010Z,0.00
2023-05-22T01:17:11.989Z,0.00
2023-05-22T01:18:12.056Z,0.00
2023-05-22T01:19:12.009Z,0.00
2023-05-22T01:20:11.960Z,0.00
2023-05-22T01:21:11.971Z,0.00
2023-05-22T01:22:11.942Z,0.00
2023-05-22T01:23:11.950Z,0.00
2023-05-22T01:24:11.950Z,0.00
2023-05-22T01:25:11.966Z,0.00
2023-05-22T01:26:11.905Z,0.00
2023-05-22T01:27:11.906Z,0.00
2023-05-22T01:28:11.882Z,0.00
2023-05-22T01:29:11.907Z,0.00
2023-05-22T01:30:11.866Z,0.00
2023-05-22T01:31:11.863Z,0.00
2023-05-22T01:32:11.857Z,0.00
2023-05-22T01:33:11.934Z,0.00
2023-05-22T01:34:11.878Z,0.00
2023-05-22T01:35:11.838Z,0.00
2023-05-22T01:36:11.820Z,0.00
2023-05-22T01:37:11.830Z,0.00
2023-05-22T01:38:11.837Z,0.00
2023-05-22T01:39:11.797Z,0.00
2023-05-22T01:40:11.793Z,0.00
2023-05-22T01:41:11.823Z,0.00
2023-05-22T01:42:11.781Z,0.00
2023-05-22T01:43:11.794Z,0.00
2023-05-22T01:44:11.770Z,0.00
2023-05-22T01:45:11.791Z,0.00
2023-05-22T01:46:11.841Z,0.00
2023-05-22T01:47:11.762Z,0.00
2023-05-22T01:48:11.759Z,0.00
2023-05-22T01:49:11.738Z,0.00
2023-05-22T01:50:11.731Z,0.00
2023-05-22T01:51:11.707Z,0.00
2023-05-22T01:52:11.723Z,0.00
2023-05-22T01:53:11.767Z,0.00
2023-05-22T01:54:11.679Z,0.00
2023-05-22T01:55:11.676Z,0.00
2023-05-22T01:56:11.669Z,0.00
2023-05-22T01:57:11.692Z,0.00
2023-05-22T01:58:11.647Z,0.00
2023-05-22T01:59:11.647Z,0.00
2023-05-22T02:00:11.698Z,0.00
2023-05-22T02:01:11.687Z,0.00
2023-05-22T02:02:11.675Z,0.00
2023-05-22T02:03:11.785Z,0.00
2023-05-22T02:04:11.610Z,0.00
2023-05-22T02:05:11.596Z,0.00
2023-05-22T02:06:11.611Z,0.00
2023-05-22T02:07:12.700Z,0.00
2023-05-22T02:08:11.580Z,0.00
2023-05-22T02:09:11.563Z,0.00
2023-05-22T02:10:11.566Z,0.00
2023-05-22T02:11:11.580Z,0.00
2023-05-22T02:12:11.541Z,0.00
2023-05-22T02:13:11.535Z,0.00
2023-05-22T02:14:11.519Z,0.00
2023-05-22T02:15:11.511Z,0.00
2023-05-22T02:16:11.633Z,0.00
2023-05-22T02:17:11.513Z,0.00
2023-05-22T02:18:11.580Z,0.00
2023-05-22T02:19:11.541Z,0.00
2023-05-22T02:20:11.488Z,0.00
2023-05-22T02:21:11.493Z,0.00
2023-05-22T02:22:11.467Z,0.00
2023-05-22T02:23:11.475Z,0.00
2023-05-22T02:24:11.448Z,0.00
2023-05-22T02:25:11.460Z,0.00
2023-05-22T02:26:11.452Z,0.00
2023-05-22T02:27:11.421Z,0.00
2023-05-22T02:28:11.423Z,0.00
2023-05-22T02:29:11.407Z,0.00
2023-05-22T02:30:11.426Z,0.00
2023-05-22T02:31:11.397Z,0.00
2023-05-22T02:32:11.386Z,0.00
2023-05-22T02:33:11.472Z,0.00
2023-05-22T02:34:11.375Z,0.00
2023-05-22T02:35:11.400Z,0.00
2023-05-22T02:36:11.359Z,0.00
2023-05-22T02:37:11.396Z,0.00
2023-05-22T02:38:11.338Z,0.00
2023-05-22T02:39:11.351Z,0.00
2023-05-22T02:40:11.347Z,0.00
2023-05-22T02:41:11.320Z,0.00
2023-05-22T02:42:11.304Z,0.00
2023-05-22T02:43:11.319Z,0.00
2023-05-22T02:44:11.325Z,0.00
2023-05-22T02:45:11.304Z,0.00
2023-05-22T02:46:11.296Z,0.00
2023-05-22T02:47:11.268Z,0.00
2023-05-22T02:48:11.339Z,0.00
2023-05-22T02:49:11.282Z,0.00
2023-05-22T02:50:11.269Z,0.00
2023-05-22T02:51:11.239Z,0.00
2023-05-22T02:52:11.224Z,0.00
2023-05-22T02:53:11.232Z,0.00
2023-05-22T02:54:11.231Z,0.00
2023-05-22T02:55:11.208Z,0.00
2023-05-22T02:56:11.221Z,0.00
2023-05-22T02:57:11.184Z,0.00
2023-05-22T02:58:11.191Z,0.00
2023-05-22T02:59:11.199Z,0.00
2023-05-22T03:00:11.168Z,0.00
2023-05-22T03:01:11.277Z,0.00
2023-05-22T03:02:11.181Z,0.00
2023-05-22T03:03:11.274Z,0.00
2023-05-22T03:04:11.226Z,0.00
2023-05-22T03:05:11.121Z,0.00
2023-05-22T03:06:11.122Z,0.00
2023-05-22T03:07:11.111Z,0.00
2023-05-22T03:08:11.138Z,0.00
2023-05-22T03:09:11.099Z,0.00
2023-05-22T03:10:11.085Z,0.00
2023-05-22T03:11:11.083Z,0.00
2023-05-22T03:12:11.068Z,0.00
2023-05-22T03:13:11.126Z,0.00
2023-05-22T03:14:11.063Z,0.00
2023-05-22T03:15:11.110Z,0.00
2023-05-22T03:16:11.079Z,5.62
2023-05-22T03:17:11.041Z,5.62
2023-05-22T03:18:11.071Z,5.62
2023-05-22T03:19:11.077Z,5.62
2023-05-22T03:20:11.019Z,5.62
2023-05-22T03:21:10.999Z,5.62
2023-05-22T03:22:11.022Z,5.62
2023-05-22T03:23:11.009Z,5.62
2023-05-22T03:24:10.980Z,11.25
2023-05-22T03:25:10.976Z,11.25
2023-05-22T03:26:10.973Z,11.25
2023-05-22T03:27:10.992Z,11.25
2023-05-22T03:28:10.948Z,16.88
2023-05-22T03:29:11.034Z,16.88
2023-05-22T03:30:10.943Z,16.88
2023-05-22T03:31:10.926Z,16.88
2023-05-22T03:32:10.983Z,22.50
2023-05-22T03:33:11.034Z,22.50
2023-05-22T03:34:11.069Z,28.12
2023-05-22T03:35:10.902Z,28.12
2023-05-22T03:36:10.915Z,28.12
2023-05-22T03:37:10.926Z,33.75
2023-05-22T03:38:10.881Z,33.75
2023-05-22T03:39:10.863Z,39.38
2023-05-22T03:40:10.851Z,39.38
2023-05-22T03:41:10.866Z,45.00
2023-05-22T03:42:10.835Z,45.00
2023-05-22T03:43:10.837Z,50.62
2023-05-22T03:44:10.820Z,56.25
2023-05-22T03:45:10.819Z,56.25
2023-05-22T03:46:10.872Z,56.25
2023-05-22T03:47:10.798Z,61.88
2023-05-22T03:48:10.929Z,67.50
2023-05-22T03:49:10.786Z,73.12
2023-05-22T03:50:10.777Z,78.75
2023-05-22T03:51:10.811Z,84.38
2023-05-22T03:52:10.788Z,90.00
2023-05-22T03:53:10.744Z,95.62
2023-05-22T03:54:11.744Z,101.25
2023-05-22T03:55:10.765Z,101.25
2023-05-22T03:56:10.755Z,106.88
2023-05-22T03:57:10.739Z,106.88
2023-05-22T03:58:10.713Z,112.50
2023-05-22T03:59:10.704Z,112.50
2023-05-22T04:00:10.925Z,118.12
2023-05-22T04:01:10.690Z,123.75
2023-05-22T04:02:10.684Z,129.38
2023-05-22T04:03:10.754Z,135.00
2023-05-22T04:04:10.658Z,140.62
2023-05-22T04:05:10.735Z,151.88
2023-05-22T04:06:10.648Z,157.50
2023-05-22T04:07:10.648Z,163.12
2023-05-22T04:08:10.627Z,168.75
2023-05-22T04:09:10.641Z,174.38
2023-05-22T04:10:10.633Z,180.00
2023-05-22T04:11:10.606Z,185.62
2023-05-22T04:12:10.603Z,191.25
2023-05-22T04:13:10.591Z,196.88
2023-05-22T04:14:10.613Z,208.12
2023-05-22T04:15:10.579Z,213.75
2023-05-22T04:16:10.665Z,225.00
2023-05-22T04:17:10.594Z,236.25
2023-05-22T04:18:10.633Z,247.50
2023-05-22T04:19:10.582Z,264.38
2023-05-22T04:20:10.520Z,286.88
2023-05-22T04:21:11.522Z,303.75
2023-05-22T04:22:10.519Z,315.00
2023-05-22T04:23:10.516Z,320.62
2023-05-22T04:24:10.532Z,320.62
2023-05-22T04:25:10.488Z,320.62
2023-05-22T04:26:10.496Z,331.88
2023-05-22T04:27:10.516Z,354.38
2023-05-22T04:28:10.503Z,382.50
2023-05-22T04:29:10.549Z,416.25
2023-05-22T04:30:10.507Z,433.12
2023-05-22T04:31:10.492Z,444.38
2023-05-22T04:32:10.442Z,455.62
2023-05-22T04:33:10.520Z,461.25
2023-05-22T04:34:10.425Z,466.88
2023-05-22T04:35:10.431Z,472.50
2023-05-22T04:36:12.324Z,478.12
2023-05-22T04:37:10.403Z,489.38
2023-05-22T04:38:10.416Z,506.25
2023-05-22T04:39:10.372Z,540.00
2023-05-22T04:40:10.399Z,562.50
2023-05-22T04:41:10.358Z,562.50
2023-05-22T04:42:10.385Z,556.88
2023-05-22T04:43:10.377Z,551.25
2023-05-22T04:44:10.345Z,506.25
2023-05-22T04:45:10.334Z,483.75
2023-05-22T04:46:10.484Z,483.75
2023-05-22T04:47:10.448Z,489.38
2023-05-22T04:48:10.327Z,500.62
2023-05-22T04:49:10.295Z,511.88
2023-05-22T04:50:10.285Z,534.38
2023-05-22T04:51:10.281Z,568.12
2023-05-22T04:52:10.288Z,596.25
2023-05-22T04:53:10.262Z,607.50
2023-05-22T04:54:10.253Z,601.88
2023-05-22T04:55:10.249Z,596.25
2023-05-22T04:56:11.817Z,596.25
2023-05-22T04:57:10.256Z,613.12
2023-05-22T04:58:10.228Z,630.00
2023-05-22T04:59:10.223Z,635.62
2023-05-22T05:00:10.212Z,630.00
2023-05-22T05:01:10.293Z,618.75
2023-05-22T05:02:10.193Z,618.75
2023-05-22T05:03:10.300Z,618.75
2023-05-22T05:04:10.263Z,630.00
2023-05-22T05:05:10.164Z,658.12
2023-05-22T05:06:10.185Z,697.50
2023-05-22T05:07:10.164Z,748.12
2023-05-22T05:08:10.150Z,804.38
2023-05-22T05:09:10.141Z,877.50
2023-05-22T05:10:10.133Z,961.88
2023-05-22T05:11:10.150Z,1023.75
2023-05-22T05:12:10.110Z,1063.12
2023-05-22T05:13:10.107Z,1119.38
2023-05-22T05:14:10.096Z,1186.88
2023-05-22T05:15:10.108Z,1181.25
2023-05-22T05:16:10.123Z,1141.88
2023-05-22T05:17:10.067Z,1130.62
2023-05-22T05:18:10.093Z,1096.88
2023-05-22T05:19:10.124Z,1051.88
2023-05-22T05:20:10.076Z,1023.75
2023-05-22T05:21:10.034Z,1040.62
2023-05-22T05:22:10.038Z,1091.25
2023-05-22T05:23:10.020Z,1141.88
2023-05-22T05:24:10.015Z,1209.38
2023-05-22T05:25:11.659Z,1361.25
2023-05-22T05:26:10.998Z,1434.38
2023-05-22T05:27:09.987Z,1445.62
2023-05-22T05:28:09.979Z,1440.00
2023-05-22T05:29:09.976Z,1406.25
2023-05-22T05:30:09.990Z,1383.75
2023-05-22T05:31:09.972Z,1395.00
2023-05-22T05:32:09.972Z,1451.25
2023-05-22T05:33:09.984Z,1496.25
2023-05-22T05:34:09.971Z,1434.38
2023-05-22T05:35:09.986Z,1395.00
2023-05-22T05:36:09.942Z,1350.00
2023-05-22T05:37:09.961Z,1327.50
2023-05-22T05:38:09.907Z,1338.75
2023-05-22T05:39:09.920Z,1383.75
2023-05-22T05:40:09.892Z,1423.12
2023-05-22T05:41:09.887Z,1451.25
2023-05-22T05:42:09.882Z,1479.38
2023-05-22T05:43:09.885Z,1468.12
2023-05-22T05:44:09.889Z,1440.00
2023-05-22T05:45:09.855Z,1361.25
2023-05-22T05:46:09.926Z,1350.00
2023-05-22T05:47:09.838Z,1378.12
2023-05-22T05:48:09.890Z,1372.50
2023-05-22T05:49:09.864Z,1378.12
2023-05-22T05:50:09.824Z,1366.88
2023-05-22T05:51:09.809Z,1366.88
2023-05-22T05:52:09.809Z,1378.12
2023-05-22T05:53:09.841Z,1406.25
2023-05-22T05:54:09.788Z,1417.50
2023-05-22T05:55:09.780Z,1400.62
2023-05-22T05:56:09.776Z,1434.38
2023-05-22T05:57:09.795Z,1507.50
2023-05-22T05:58:09.786Z,1558.12
2023-05-22T05:59:09.767Z,1535.62
2023-05-22T06:00:09.749Z,1558.12
2023-05-22T06:01:09.755Z,1406.25
2023-05-22T06:02:09.854Z,1395.00
2023-05-22T06:03:09.805Z,1496.25
2023-05-22T06:04:09.727Z,1597.50
2023-05-22T06:05:09.719Z,1620.00
2023-05-22T06:06:09.709Z,1636.88
2023-05-22T06:07:09.740Z,1653.75
2023-05-22T06:08:09.695Z,1665.00
2023-05-22T06:09:09.691Z,1710.00
2023-05-22T06:10:09.685Z,1710.00
2023-05-22T06:11:09.667Z,1704.38
2023-05-22T06:12:09.690Z,1777.50
2023-05-22T06:13:10.659Z,1800.00
2023-05-22T06:14:09.656Z,1833.75
2023-05-22T06:15:09.646Z,1822.50
2023-05-22T06:16:09.668Z,1850.62
2023-05-22T06:17:09.649Z,1912.50
2023-05-22T06:18:09.644Z,1884.38
2023-05-22T06:19:09.701Z,1811.25
2023-05-22T06:20:09.605Z,1760.62
2023-05-22T06:21:09.638Z,1710.00
2023-05-22T06:22:09.600Z,1648.12
2023-05-22T06:23:09.589Z,1631.25
2023-05-22T06:24:09.575Z,1580.62
2023-05-22T06:25:09.613Z,1501.88
2023-05-22T06:26:09.591Z,1473.75
2023-05-22T06:27:09.579Z,1501.88
2023-05-22T06:28:09.554Z,1552.50
2023-05-22T06:29:09.553Z,1546.88
2023-05-22T06:30:09.591Z,1513.12
2023-05-22T06:31:09.540Z,1485.00
2023-05-22T06:32:09.598Z,1473.75
2023-05-22T06:33:09.728Z,1513.12
2023-05-22T06:34:09.641Z,1479.38
2023-05-22T06:35:09.526Z,1445.62
2023-05-22T06:36:09.507Z,1400.62
2023-05-22T06:37:09.482Z,1395.00
2023-05-22T06:38:09.491Z,1395.00
2023-05-22T06:39:09.474Z,1406.25
2023-05-22T06:40:09.480Z,1434.38
2023-05-22T06:41:10.560Z,1423.12
2023-05-22T06:42:09.448Z,1451.25
2023-05-22T06:43:09.442Z,1507.50
2023-05-22T06:44:09.464Z,1580.62
2023-05-22T06:45:09.453Z,1687.50
2023-05-22T06:46:09.512Z,1800.00
2023-05-22T06:47:09.411Z,1805.62
2023-05-22T06:48:09.474Z,1861.88
2023-05-22T06:49:09.421Z,1856.25
2023-05-22T06:50:09.386Z,1828.12
2023-05-22T06:51:09.376Z,1755.00
2023-05-22T06:52:09.374Z,1704.38
2023-05-22T06:53:09.369Z,1704.38
2023-05-22T06:54:09.483Z,1760.62
2023-05-22T06:55:09.362Z,1783.12
2023-05-22T06:56:09.372Z,1794.38
2023-05-22T06:57:09.333Z,1766.25
2023-05-22T06:58:09.352Z,1771.88
2023-05-22T06:59:09.350Z,1766.25
2023-05-22T07:00:09.310Z,1726.88
2023-05-22T07:01:09.347Z,1738.12
2023-05-22T07:02:09.294Z,1681.88
2023-05-22T07:03:09.343Z,1636.88
2023-05-22T07:04:09.276Z,1597.50
2023-05-22T07:05:09.305Z,1575.00
2023-05-22T07:06:09.273Z,1535.62
2023-05-22T07:07:09.259Z,1490.62
2023-05-22T07:08:09.281Z,1440.00
2023-05-22T07:09:09.247Z,1372.50
2023-05-22T07:10:09.246Z,1316.25
2023-05-22T07:11:09.223Z,1282.50
2023-05-22T07:12:09.215Z,1310.62
2023-05-22T07:13:09.298Z,1299.38
2023-05-22T07:14:09.200Z,1305.00
2023-05-22T07:15:09.193Z,1321.88
2023-05-22T07:16:09.214Z,1338.75
2023-05-22T07:17:09.201Z,1383.75
2023-05-22T07:18:09.252Z,1451.25
2023-05-22T07:19:09.199Z,1440.00
2023-05-22T07:20:09.164Z,1395.00
2023-05-22T07:21:09.144Z,1344.38
2023-05-22T07:22:09.169Z,1361.25
2023-05-22T07:23:09.135Z,1400.62
2023-05-22T07:24:09.134Z,1445.62
2023-05-22T07:25:09.114Z,1445.62
2023-05-22T07:26:09.108Z,1434.38
2023-05-22T07:27:09.138Z,1440.00
2023-05-22T07:28:09.311Z,1468.12
2023-05-22T07:29:09.091Z,1485.00
2023-05-22T07:30:09.090Z,1530.00
2023-05-22T07:31:09.104Z,1569.38
2023-05-22T07:32:09.083Z,1603.12
2023-05-22T07:33:09.081Z,1653.75
2023-05-22T07:34:09.062Z,1698.75
2023-05-22T07:35:09.049Z,1693.12
2023-05-22T07:36:09.075Z,1665.00
2023-05-22T07:37:09.051Z,1625.62
2023-05-22T07:38:09.016Z,1614.38
2023-05-22T07:39:09.030Z,1541.25
2023-05-22T07:40:09.012Z,1485.00
2023-05-22T07:41:09.019Z,1496.25
2023-05-22T07:42:08.992Z,1530.00
2023-05-22T07:43:08.979Z,1563.75
2023-05-22T07:44:08.975Z,1580.62
2023-05-22T07:45:08.975Z,1580.62
2023-05-22T07:46:09.220Z,1558.12
2023-05-22T07:47:08.981Z,1563.75
2023-05-22T07:48:08.955Z,1541.25
2023-05-22T07:49:08.951Z,1479.38
2023-05-22T07:50:08.939Z,1462.50
2023-05-22T07:51:08.948Z,1434.38
2023-05-22T07:52:08.916Z,1406.25
2023-05-22T07:53:08.906Z,1411.88
2023-05-22T07:54:08.894Z,1434.38
2023-05-22T07:55:08.957Z,1445.62
2023-05-22T07:56:08.902Z,1400.62
2023-05-22T07:57:08.885Z,1378.12
2023-05-22T07:58:08.863Z,1355.62
2023-05-22T07:59:08.869Z,1316.25
2023-05-22T08:00:08.908Z,1293.75
2023-05-22T08:01:09.718Z,1271.25
2023-05-22T08:02:09.907Z,1293.75
2023-05-22T08:03:08.934Z,1333.12
2023-05-22T08:04:09.048Z,1327.50
2023-05-22T08:05:08.889Z,1366.88
2023-05-22T08:06:08.823Z,1395.00
2023-05-22T08:07:08.824Z,1451.25
2023-05-22T08:08:08.787Z,1440.00
2023-05-22T08:09:09.045Z,1400.62
2023-05-22T08:10:08.769Z,1254.38
2023-05-22T08:11:09.003Z,1226.25
2023-05-22T08:12:08.797Z,1203.75
2023-05-22T08:13:08.755Z,1186.88
2023-05-22T08:14:08.745Z,1181.25
2023-05-22T08:15:08.739Z,1130.62
2023-05-22T08:16:08.755Z,1108.12
2023-05-22T08:17:08.902Z,1102.50
2023-05-22T08:18:08.736Z,1096.88
2023-05-22T08:19:08.752Z,1091.25
2023-05-22T08:20:08.860Z,1091.25
2023-05-22T08:21:08.721Z,1080.00
2023-05-22T08:22:08.685Z,1080.00
2023-05-22T08:23:08.699Z,1068.75
2023-05-22T08:24:08.683Z,1051.88
2023-05-22T08:25:08.664Z,1074.38
2023-05-22T08:26:08.699Z,1102.50
2023-05-22T08:27:08.646Z,1091.25
2023-05-22T08:28:08.644Z,1136.25
2023-05-22T08:29:08.629Z,1141.88
2023-05-22T08:30:08.642Z,1141.88
2023-05-22T08:31:08.741Z,1113.75
2023-05-22T08:32:08.745Z,1068.75
2023-05-22T08:33:08.782Z,1046.25
2023-05-22T08:34:08.592Z,1029.38
2023-05-22T08:35:08.613Z,995.62
2023-05-22T08:36:08.580Z,967.50
2023-05-22T08:37:08.574Z,956.25
2023-05-22T08:38:08.576Z,973.12
2023-05-22T08:39:08.561Z,956.25
2023-05-22T08:40:08.574Z,933.75
2023-05-22T08:41:08.556Z,950.62
2023-05-22T08:42:08.543Z,956.25
2023-05-22T08:43:08.545Z,928.12
2023-05-22T08:44:08.563Z,911.25
2023-05-22T08:45:08.540Z,905.62
2023-05-22T08:46:08.509Z,900.00
2023-05-22T08:47:08.605Z,911.25
2023-05-22T08:48:08.496Z,922.50
2023-05-22T08:49:08.541Z,916.88
2023-05-22T08:50:08.481Z,894.38
2023-05-22T08:51:08.471Z,888.75
2023-05-22T08:52:08.474Z,883.12
2023-05-22T08:53:08.450Z,883.12
2023-05-22T08:54:08.493Z,894.38
2023-05-22T08:55:08.444Z,888.75
2023-05-22T08:56:08.478Z,888.75
2023-05-22T08:57:08.452Z,877.50
2023-05-22T08:58:08.458Z,888.75
2023-05-22T08:59:08.442Z,883.12
2023-05-22T09:00:08.406Z,871.88
2023-05-22T09:01:08.461Z,871.88
2023-05-22T09:02:08.394Z,900.00
2023-05-22T09:03:08.455Z,911.25
2023-05-22T09:04:08.475Z,894.38
2023-05-22T09:05:08.412Z,905.62
2023-05-22T09:06:08.362Z,916.88
2023-05-22T09:07:08.362Z,916.88
2023-05-22T09:08:19.172Z,922.50
2023-05-22T09:09:10.348Z,916.88
2023-05-22T09:10:08.338Z,916.88
2023-05-22T09:11:08.335Z,900.00
2023-05-22T09:12:08.332Z,900.00
2023-05-22T09:13:08.358Z,877.50
2023-05-22T09:14:08.348Z,883.12
2023-05-22T09:15:08.303Z,894.38
2023-05-22T09:16:08.311Z,877.50
2023-05-22T09:17:08.407Z,855.00
2023-05-22T09:18:08.396Z,849.38
2023-05-22T09:19:08.312Z,838.12
2023-05-22T09:20:08.268Z,826.88
2023-05-22T09:21:21.652Z,815.62
2023-05-22T09:22:10.290Z,798.75
2023-05-22T09:23:08.268Z,798.75
2023-05-22T09:24:08.270Z,793.12
2023-05-22T09:25:08.236Z,793.12
2023-05-22T09:26:08.225Z,793.12
2023-05-22T09:27:08.264Z,787.50
2023-05-22T09:28:08.208Z,781.88
2023-05-22T09:29:08.215Z,776.25
2023-05-22T09:30:08.203Z,770.62
2023-05-22T09:31:08.241Z,765.00
2023-05-22T09:32:08.202Z,759.38
2023-05-22T09:33:08.227Z,753.75
2023-05-22T09:34:08.169Z,748.12
2023-05-22T09:35:08.174Z,742.50
2023-05-22T09:36:08.162Z,736.88
2023-05-22T09:37:08.166Z,731.25
2023-05-22T09:38:09.226Z,725.62
2023-05-22T09:39:08.137Z,720.00
2023-05-22T09:40:08.131Z,708.75
2023-05-22T09:41:08.141Z,691.88
2023-05-22T09:42:08.163Z,697.50
2023-05-22T09:43:08.097Z,691.88
2023-05-22T09:44:08.096Z,686.25
2023-05-22T09:45:08.093Z,675.00
2023-05-22T09:46:08.341Z,669.38
2023-05-22T09:47:08.093Z,675.00
2023-05-22T09:48:08.120Z,669.38
2023-05-22T09:49:08.062Z,663.75
2023-05-22T09:50:08.059Z,658.12
2023-05-22T09:51:08.074Z,663.75
2023-05-22T09:52:08.067Z,663.75
2023-05-22T09:53:08.060Z,669.38
2023-05-22T09:54:08.028Z,680.62
2023-05-22T09:55:08.041Z,680.62
2023-05-22T09:56:08.029Z,697.50
2023-05-22T09:57:08.012Z,680.62
2023-05-22T09:58:07.988Z,703.12
2023-05-22T09:59:07.989Z,708.75
2023-05-22T10:00:08.006Z,708.75
2023-05-22T10:01:08.010Z,703.12
2023-05-22T10:02:08.085Z,703.12
2023-05-22T10:03:08.037Z,686.25
2023-05-22T10:04:08.018Z,686.25
2023-05-22T10:05:07.995Z,703.12
2023-05-22T10:06:07.941Z,720.00
2023-05-22T10:07:07.927Z,714.38
2023-05-22T10:08:07.920Z,714.38
2023-05-22T10:09:07.921Z,708.75
2023-05-22T10:10:07.987Z,708.75
2023-05-22T10:11:07.898Z,708.75
2023-05-22T10:12:07.943Z,697.50
2023-05-22T10:13:07.953Z,697.50
2023-05-22T10:14:07.937Z,697.50
2023-05-22T10:15:07.896Z,703.12
2023-05-22T10:16:07.920Z,708.75
2023-05-22T10:17:07.856Z,703.12
2023-05-22T10:18:07.961Z,697.50
2023-05-22T10:19:07.907Z,697.50
2023-05-22T10:20:07.827Z,691.88
2023-05-22T10:21:07.836Z,697.50
2023-05-22T10:22:07.830Z,703.12
2023-05-22T10:23:07.858Z,703.12
2023-05-22T10:24:07.832Z,703.12
2023-05-22T10:25:10.429Z,703.12
2023-05-22T10:26:07.784Z,708.75
2023-05-22T10:27:07.785Z,703.12
2023-05-22T10:28:07.795Z,703.12
2023-05-22T10:29:07.788Z,697.50
2023-05-22T10:30:07.816Z,697.50
2023-05-22T10:31:07.748Z,686.25
2023-05-22T10:32:07.740Z,686.25
2023-05-22T10:33:07.889Z,686.25
2023-05-22T10:34:07.851Z,680.62
2023-05-22T10:35:07.718Z,680.62
2023-05-22T10:36:07.726Z,680.62
2023-05-22T10:37:17.106Z,675.00
2023-05-22T10:38:09.719Z,669.38
2023-05-22T10:39:07.682Z,669.38
2023-05-22T10:40:07.679Z,669.38
2023-05-22T10:41:07.750Z,663.75
2023-05-22T10:42:07.659Z,658.12
2023-05-22T10:43:07.696Z,652.50
2023-05-22T10:44:07.650Z,630.00
2023-05-22T10:45:07.676Z,635.62
2023-05-22T10:46:07.738Z,641.25
2023-05-22T10:47:07.669Z,635.62
2023-05-22T10:48:07.769Z,635.62
2023-05-22T10:49:07.616Z,635.62
2023-05-22T10:50:07.625Z,624.38
2023-05-22T10:51:07.601Z,624.38
2023-05-22T10:52:07.620Z,618.75
2023-05-22T10:53:07.585Z,613.12
2023-05-22T10:54:07.585Z,601.88
2023-05-22T10:55:07.593Z,596.25
2023-05-22T10:56:07.573Z,590.62
2023-05-22T10:57:07.683Z,596.25
2023-05-22T10:58:07.555Z,601.88
2023-05-22T10:59:07.572Z,601.88
2023-05-22T11:00:07.546Z,596.25
2023-05-22T11:01:07.540Z,596.25
2023-05-22T11:02:09.619Z,601.88
2023-05-22T11:03:17.069Z,601.88
2023-05-22T11:04:09.512Z,601.88
2023-05-22T11:05:07.562Z,596.25
2023-05-22T11:06:07.518Z,607.50
2023-05-22T11:07:07.512Z,607.50
2023-05-22T11:08:07.480Z,618.75
2023-05-22T11:09:07.474Z,613.12
2023-05-22T11:10:07.462Z,613.12
2023-05-22T11:11:07.483Z,613.12
2023-05-22T11:12:07.462Z,613.12
2023-05-22T11:13:07.517Z,613.12
2023-05-22T11:14:07.447Z,613.12
2023-05-22T11:15:07.423Z,618.75
2023-05-22T11:16:07.453Z,618.75
2023-05-22T11:17:07.442Z,613.12
2023-05-22T11:18:07.459Z,613.12
2023-05-22T11:19:21.943Z,601.88
2023-05-22T11:20:09.529Z,596.25
2023-05-22T11:21:07.419Z,596.25
2023-05-22T11:22:07.384Z,590.62
2023-05-22T11:23:07.370Z,585.00
2023-05-22T11:24:07.362Z,579.38
2023-05-22T11:25:07.398Z,579.38
2023-05-22T11:26:07.342Z,579.38
2023-05-22T11:27:07.348Z,573.75
2023-05-22T11:28:07.342Z,573.75
2023-05-22T11:29:07.329Z,568.12
2023-05-22T11:30:07.366Z,568.12
2023-05-22T11:31:07.345Z,568.12
2023-05-22T11:32:07.313Z,568.12
2023-05-22T11:33:07.344Z,568.12
2023-05-22T11:34:07.307Z,568.12
2023-05-22T11:35:07.291Z,568.12
2023-05-22T11:36:08.271Z,562.50
2023-05-22T11:37:07.258Z,556.88
2023-05-22T11:38:07.377Z,556.88
2023-05-22T11:39:07.293Z,562.50
2023-05-22T11:40:07.251Z,556.88
2023-05-22T11:41:07.231Z,556.88
2023-05-22T11:42:07.213Z,551.25
2023-05-22T11:43:08.237Z,551.25
2023-05-22T11:44:07.232Z,556.88
2023-05-22T11:45:07.278Z,556.88
2023-05-22T11:46:07.258Z,562.50
2023-05-22T11:47:07.213Z,556.88
2023-05-22T11:48:07.224Z,556.88
2023-05-22T11:49:07.191Z,551.25
2023-05-22T11:50:07.152Z,517.50
2023-05-22T11:51:07.153Z,500.62
2023-05-22T11:52:07.140Z,489.38
2023-05-22T11:53:07.165Z,466.88
2023-05-22T11:54:07.161Z,461.25
2023-05-22T11:55:07.124Z,450.00
2023-05-22T11:56:07.121Z,450.00
2023-05-22T11:57:07.109Z,455.62
2023-05-22T11:58:07.136Z,466.88
2023-05-22T11:59:07.091Z,478.12
2023-05-22T12:00:07.123Z,489.38
2023-05-22T12:01:07.147Z,506.25
2023-05-22T12:02:07.102Z,511.88
2023-05-22T12:03:07.165Z,511.88
2023-05-22T12:04:07.125Z,511.88
2023-05-22T12:05:07.046Z,523.12
2023-05-22T12:06:07.020Z,528.75
2023-05-22T12:07:07.046Z,534.38
2023-05-22T12:08:07.056Z,540.00
2023-05-22T12:09:07.015Z,545.62
2023-05-22T12:10:06.999Z,556.88
2023-05-22T12:11:07.014Z,562.50
2023-05-22T12:12:07.013Z,562.50
2023-05-22T12:13:06.986Z,562.50
2023-05-22T12:14:06.966Z,562.50
2023-05-22T12:15:06.964Z,551.25
2023-05-22T12:16:06.971Z,551.25
2023-05-22T12:17:07.048Z,551.25
2023-05-22T12:18:06.944Z,545.62
2023-05-22T12:19:06.976Z,545.62
2023-05-22T12:20:06.921Z,545.62
2023-05-22T12:21:06.949Z,551.25
2023-05-22T12:22:06.935Z,551.25
2023-05-22T12:23:06.899Z,551.25
2023-05-22T12:24:06.882Z,551.25
2023-05-22T12:25:06.876Z,551.25
2023-05-22T12:26:06.907Z,551.25
2023-05-22T12:27:06.892Z,551.25
2023-05-22T12:28:06.889Z,545.62
2023-05-22T12:29:06.852Z,545.62
2023-05-22T12:30:06.901Z,545.62
2023-05-22T12:31:06.880Z,545.62
2023-05-22T12:32:06.892Z,545.62
2023-05-22T12:33:06.951Z,545.62
2023-05-22T12:34:06.832Z,540.00
2023-05-22T12:35:06.836Z,534.38
2023-05-22T12:36:06.845Z,534.38